Time;durP1;ratioP1;P1;durP2;ratioP2;P2;SDS_P1;SDS_P2;PMS_P1;PMS_P2;Temp;Humidity;BMP_temperature;BMP_pressure;BME280_temperature;BME280_humidity;BME280_pressure;Samples;Min_cycle;Max_cycle;Signal;HPM_P1;HPM_P2
2021/01/21 00:00:51;;;;;;;4.50;3.73;;;;;;;5.92;66.03;94761.53;5037480;28;20470;-81
2021/01/21 00:03:17;;;;;;;8.40;4.53;;;;;;;5.89;66.24;94764.59;5038254;28;20491;-82
2021/01/21 00:05:43;;;;;;;5.37;3.77;;;;;;;5.80;66.38;94778.56;5037921;28;20960;-81
2021/01/21 00:08:10;;;;;;;6.60;4.20;;;;;;;5.82;66.46;94778.75;5042120;28;20447;-80
2021/01/21 00:10:36;;;;;;;8.07;5.10;;;;;;;5.79;66.90;94782.53;5041547;28;20483;-82
2021/01/21 00:13:03;;;;;;;11.40;6.40;;;;;;;5.79;67.66;94791.25;5037867;28;20826;-81
2021/01/21 00:15:30;;;;;;;9.30;6.80;;;;;;;5.55;69.42;94802.63;5037601;28;20498;-81
2021/01/21 00:17:56;;;;;;;9.50;5.90;;;;;;;5.48;69.80;94792.00;5037507;28;20798;-81
2021/01/21 00:20:23;;;;;;;9.47;6.43;;;;;;;5.33;70.57;94798.84;5037882;28;20522;-81
2021/01/21 00:22:49;;;;;;;11.67;6.90;;;;;;;5.20;71.53;94812.44;5038336;28;20999;-81
2021/01/21 00:25:15;;;;;;;14.53;7.47;;;;;;;5.10;72.37;94808.94;5039162;28;20519;-81
2021/01/21 00:27:42;;;;;;;9.70;7.40;;;;;;;5.02;72.55;94797.56;5038627;28;20439;-81
2021/01/21 00:30:10;;;;;;;14.33;8.03;;;;;;;4.94;73.09;94804.91;5038658;28;20816;-81
2021/01/21 00:32:37;;;;;;;11.03;7.83;;;;;;;4.93;73.50;94800.09;5039267;28;20443;-81
2021/01/21 00:35:04;;;;;;;11.83;7.70;;;;;;;4.98;72.81;94810.56;5036842;28;20447;-84
2021/01/21 00:37:31;;;;;;;11.70;7.00;;;;;;;4.92;73.24;94794.03;5036191;28;20451;-84
2021/01/21 00:39:57;;;;;;;9.73;7.00;;;;;;;4.86;73.49;94791.56;5036490;28;20471;-83
2021/01/21 00:42:23;;;;;;;10.60;6.90;;;;;;;4.85;73.42;94800.13;5035627;28;20483;-84
2021/01/21 00:44:49;;;;;;;10.37;6.17;;;;;;;4.77;73.55;94786.06;5036220;28;20513;-84
2021/01/21 00:47:17;;;;;;;6.63;5.80;;;;;;;4.81;73.80;94787.16;5036079;28;20490;-84
2021/01/21 00:49:43;;;;;;;8.30;5.30;;;;;;;4.89;73.56;94789.78;5035909;28;20551;-84
2021/01/21 00:52:10;;;;;;;7.80;5.10;;;;;;;4.98;72.69;94796.53;5035907;28;20447;-84
2021/01/21 00:54:36;;;;;;;6.50;4.57;;;;;;;5.02;72.13;94767.44;5036320;28;20451;-84
2021/01/21 00:57:02;;;;;;;7.73;4.90;;;;;;;5.08;71.74;94774.00;5036156;28;21053;-84
2021/01/21 00:59:29;;;;;;;7.27;4.70;;;;;;;5.13;71.03;94775.06;5035508;28;20804;-84
2021/01/21 01:01:55;;;;;;;4.30;3.53;;;;;;;5.14;70.58;94763.81;5035633;28;20449;-84
2021/01/21 01:04:22;;;;;;;3.43;2.67;;;;;;;5.22;70.67;94772.53;5035670;28;20479;-84
2021/01/21 01:06:49;;;;;;;4.00;3.27;;;;;;;5.33;69.72;94764.09;5035562;28;20442;-82
2021/01/21 01:09:15;;;;;;;5.50;4.10;;;;;;;5.37;69.00;94756.41;5036633;28;20447;-83
2021/01/21 01:11:41;;;;;;;4.20;2.90;;;;;;;5.43;68.43;94766.16;5034992;28;20971;-83
2021/01/21 01:14:08;;;;;;;7.17;3.27;;;;;;;5.54;68.59;94769.13;5036127;28;20468;-83
2021/01/21 01:16:34;;;;;;;3.20;2.50;;;;;;;5.57;67.45;94778.75;5036127;28;20455;-83
2021/01/21 01:19:00;;;;;;;4.47;3.40;;;;;;;5.63;67.48;94775.84;5036088;28;20546;-81
2021/01/21 01:21:28;;;;;;;5.93;3.30;;;;;;;5.75;65.95;94782.19;5036443;28;20498;-81
2021/01/21 01:23:54;;;;;;;7.30;3.10;;;;;;;5.83;64.97;94766.78;5037843;28;20483;-81
2021/01/21 01:26:21;;;;;;;5.30;3.00;;;;;;;5.88;65.04;94763.22;5036710;28;20851;-81
2021/01/21 01:28:48;;;;;;;2.80;2.37;;;;;;;6.00;63.58;94760.78;5036096;28;20822;-81
2021/01/21 01:31:14;;;;;;;7.67;3.07;;;;;;;5.90;63.85;94755.34;5035615;28;20550;-82
2021/01/21 01:33:40;;;;;;;6.47;2.50;;;;;;;6.14;63.31;94756.56;5035404;28;20493;-81
2021/01/21 01:36:07;;;;;;;3.87;2.33;;;;;;;6.16;63.40;94749.41;5044148;28;20443;-81
2021/01/21 01:38:35;;;;;;;3.90;2.57;;;;;;;6.19;62.45;94745.63;5038393;28;20439;-84
2021/01/21 01:41:01;;;;;;;3.83;2.40;;;;;;;6.19;62.22;94742.22;5035575;28;20456;-84
2021/01/21 01:43:28;;;;;;;6.03;2.60;;;;;;;6.15;62.58;94745.28;5034664;28;20487;-84
2021/01/21 01:45:54;;;;;;;5.83;3.50;;;;;;;6.29;62.38;94735.72;5033014;28;20451;-84
2021/01/21 01:48:21;;;;;;;5.67;2.63;;;;;;;6.32;62.39;94737.28;5038233;28;20409;-81
2021/01/21 01:50:47;;;;;;;3.40;2.57;;;;;;;6.33;62.12;94752.06;5038472;28;21031;-81
2021/01/21 01:53:14;;;;;;;4.30;2.87;;;;;;;6.28;63.03;94746.97;5042029;28;20443;-81
2021/01/21 01:55:41;;;;;;;4.23;2.93;;;;;;;6.24;63.30;94744.66;5042760;28;20459;-81
2021/01/21 01:58:09;;;;;;;3.63;2.20;;;;;;;6.30;62.74;94725.69;5042282;28;20477;-82
2021/01/21 02:00:36;;;;;;;4.03;2.50;;;;;;;6.24;62.49;94736.63;5042085;28;20466;-81
2021/01/21 02:03:03;;;;;;;3.93;2.40;;;;;;;6.34;61.84;94726.72;5043471;28;20493;-81
2021/01/21 02:05:29;;;;;;;2.57;1.90;;;;;;;6.35;62.24;94738.88;5042723;28;20497;-81
2021/01/21 02:07:56;;;;;;;7.70;2.87;;;;;;;6.44;61.88;94735.56;5042301;28;20477;-81
2021/01/21 02:10:22;;;;;;;5.97;2.87;;;;;;;6.37;61.53;94739.00;5041996;28;21009;-81
2021/01/21 02:13:08;;;;;;;4.70;2.87;;;;;;;6.35;62.50;94744.22;5043043;28;20966;-81
2021/01/21 02:15:53;;;;;;;5.10;2.77;;;;;;;6.42;62.10;94729.34;5042472;28;20438;-81
2021/01/21 02:18:26;;;;;;;4.13;2.57;;;;;;;6.51;60.63;94719.94;5042633;28;20438;-82
2021/01/21 02:21:40;;;;;;;3.60;2.07;;;;;;;6.55;61.12;94717.59;5042012;28;20549;-81
2021/01/21 02:24:31;;;;;;;6.60;3.30;;;;;;;6.62;61.51;94717.47;5038261;28;20493;-85
2021/01/21 02:27:02;;;;;;;5.17;3.20;;;;;;;6.53;62.88;94709.38;5038351;28;20862;-85
2021/01/21 02:29:32;;;;;;;5.33;3.00;;;;;;;6.54;62.72;94697.41;5045277;28;20422;-81
2021/01/21 02:32:35;;;;;;;5.13;3.03;;;;;;;6.51;61.83;94690.47;5062016;28;20455;-86
2021/01/21 02:35:07;;;;;;;3.90;2.30;;;;;;;6.46;61.02;94700.88;5062056;28;20415;-86
2021/01/21 02:37:37;;;;;;;3.53;1.67;;;;;;;6.65;59.90;94702.97;5061726;28;20395;-86
2021/01/21 02:40:06;;;;;;;3.30;2.10;;;;;;;6.91;58.64;94682.81;5040551;28;20484;-81
2021/01/21 02:42:44;;;;;;;3.87;2.70;;;;;;;7.00;58.96;94693.59;5040650;28;21010;-80
2021/01/21 02:45:12;;;;;;;4.20;2.33;;;;;;;7.18;57.84;94682.81;5042208;28;20386;-80
2021/01/21 02:47:38;;;;;;;1.83;1.60;;;;;;;7.23;58.08;94679.88;5041462;28;20489;-81
2021/01/21 02:50:07;;;;;;;2.20;1.80;;;;;;;7.38;56.96;94676.97;5040301;28;20467;-81
2021/01/21 02:52:39;;;;;;;3.60;1.80;;;;;;;7.53;56.75;94676.03;5040667;28;20527;-80
2021/01/21 02:55:14;;;;;;;2.33;1.80;;;;;;;7.44;56.29;94677.41;5040389;28;20473;-81
2021/01/21 02:57:47;;;;;;;2.37;1.67;;;;;;;7.35;57.30;94691.50;5040551;28;20511;-80
2021/01/21 03:00:15;;;;;;;2.30;1.70;;;;;;;7.32;57.76;94700.69;5040661;28;20470;-80
2021/01/21 03:02:45;;;;;;;2.97;1.87;;;;;;;7.31;57.88;94707.28;5040131;28;20491;-80
2021/01/21 03:05:15;;;;;;;7.77;2.37;;;;;;;7.32;58.01;94713.38;5040304;28;20641;-81
2021/01/21 03:07:42;;;;;;;2.33;2.00;;;;;;;7.30;58.40;94707.88;5041775;28;20421;-80
2021/01/21 03:10:10;;;;;;;4.20;1.83;;;;;;;7.19;58.76;94703.72;5041189;28;20537;-80
2021/01/21 03:12:37;;;;;;;3.70;2.37;;;;;;;7.12;58.85;94698.44;5041551;28;20443;-80
2021/01/21 03:15:06;;;;;;;3.60;2.00;;;;;;;7.13;58.50;94683.78;5041590;28;20494;-80
2021/01/21 03:17:32;;;;;;;2.90;1.10;;;;;;;7.19;57.29;94665.47;5041704;28;20431;-80
2021/01/21 03:19:59;;;;;;;1.40;1.20;;;;;;;7.35;56.07;94659.31;5042335;28;20470;-80
2021/01/21 03:22:26;;;;;;;2.43;1.20;;;;;;;7.44;55.54;94658.63;5041363;28;20526;-80
2021/01/21 03:24:52;;;;;;;2.00;1.27;;;;;;;7.49;55.42;94656.94;5041875;28;20452;-80
2021/01/21 03:27:18;;;;;;;3.07;1.43;;;;;;;7.50;54.32;94669.09;5041297;28;20790;-80
2021/01/21 03:29:45;;;;;;;3.50;1.70;;;;;;;7.59;55.27;94671.09;5041297;28;20551;-81
2021/01/21 03:32:11;;;;;;;3.30;1.33;;;;;;;7.48;55.97;94667.00;5041106;28;20447;-81
2021/01/21 03:34:38;;;;;;;1.47;1.17;;;;;;;7.48;56.01;94663.59;5040965;28;20418;-81
2021/01/21 03:37:04;;;;;;;4.60;1.90;;;;;;;7.49;55.48;94657.66;5041586;28;20515;-81
2021/01/21 03:39:31;;;;;;;2.77;1.63;;;;;;;7.44;55.51;94661.31;5041490;28;20931;-81
2021/01/21 03:41:58;;;;;;;3.87;1.20;;;;;;;7.43;55.82;94659.91;5041495;28;20418;-81
2021/01/21 03:44:24;;;;;;;2.00;1.50;;;;;;;7.41;55.58;94654.41;5041186;28;20493;-81
2021/01/21 03:46:50;;;;;;;1.20;1.10;;;;;;;7.50;54.98;94663.72;5040644;28;20425;-81
2021/01/21 03:49:17;;;;;;;1.57;0.97;;;;;;;7.60;54.34;94655.72;5041426;28;20450;-81
2021/01/21 03:51:43;;;;;;;1.83;1.60;;;;;;;7.65;54.60;94665.47;5042240;28;20435;-82
2021/01/21 03:54:09;;;;;;;1.87;1.17;;;;;;;7.59;54.64;94657.69;5041883;28;20543;-81
2021/01/21 03:56:37;;;;;;;1.40;1.10;;;;;;;7.59;54.55;94656.97;5042317;28;20421;-81
2021/01/21 03:59:04;;;;;;;2.33;1.83;;;;;;;7.61;54.61;94649.78;5041090;28;20581;-81
2021/01/21 04:01:30;;;;;;;2.50;1.63;;;;;;;7.71;53.90;94639.75;5042079;28;20442;-81
2021/01/21 04:03:56;;;;;;;3.30;1.20;;;;;;;7.81;53.90;94643.16;5041914;28;20467;-81
2021/01/21 04:06:23;;;;;;;7.37;1.23;;;;;;;7.78;53.54;94651.66;5041878;28;20516;-81
2021/01/21 04:08:49;;;;;;;3.03;1.40;;;;;;;7.83;53.48;94648.00;5041851;28;20439;-81
2021/01/21 04:11:15;;;;;;;7.80;1.50;;;;;;;7.82;53.32;94647.28;5041036;28;20494;-81
2021/01/21 04:13:43;;;;;;;2.37;1.50;;;;;;;7.75;54.01;94647.41;5040612;28;20511;-81
2021/01/21 04:16:09;;;;;;;2.87;1.27;;;;;;;7.76;54.45;94641.47;5041180;28;20543;-82
2021/01/21 04:18:35;;;;;;;1.93;1.00;;;;;;;7.80;53.98;94641.06;5041054;28;20443;-81
2021/01/21 04:21:02;;;;;;;1.03;0.63;;;;;;;7.67;54.00;94644.16;5039859;28;20441;-81
2021/01/21 04:23:28;;;;;;;5.33;1.07;;;;;;;7.73;53.75;94639.22;5039778;28;20477;-81
2021/01/21 04:25:54;;;;;;;6.90;1.40;;;;;;;7.73;53.77;94641.91;5039987;28;20538;-81
2021/01/21 04:28:21;;;;;;;10.63;1.60;;;;;;;7.83;53.76;94645.31;5039747;28;20497;-81
2021/01/21 04:30:48;;;;;;;7.47;1.20;;;;;;;7.81;54.18;94651.22;5039564;28;20535;-81
2021/01/21 04:33:14;;;;;;;1.57;1.10;;;;;;;7.80;54.20;94657.19;5039954;28;20488;-81
2021/01/21 04:35:41;;;;;;;3.50;1.20;;;;;;;7.76;54.41;94657.59;5039471;28;20446;-81
2021/01/21 04:38:07;;;;;;;1.50;1.23;;;;;;;7.79;54.24;94666.50;5039574;28;20425;-81
2021/01/21 04:40:33;;;;;;;2.23;1.60;;;;;;;7.84;54.40;94654.75;5037539;28;20540;-84
2021/01/21 04:43:00;;;;;;;11.47;1.20;;;;;;;7.85;54.08;94661.56;5035771;28;20479;-84
2021/01/21 04:45:26;;;;;;;4.13;1.10;;;;;;;8.06;53.57;94661.72;5037395;28;20406;-81
2021/01/21 04:47:55;;;;;;;6.53;1.30;;;;;;;8.16;53.34;94635.56;5039475;28;20514;-84
2021/01/21 04:50:21;;;;;;;2.00;1.20;;;;;;;8.26;53.14;94630.19;5034741;28;20837;-85
2021/01/21 04:52:51;;;;;;;1.40;0.80;;;;;;;8.29;53.13;94640.53;5034946;28;20443;-84
2021/01/21 04:55:21;;;;;;;1.60;1.00;;;;;;;8.39;52.17;94633.19;5038474;28;20501;-81
2021/01/21 04:57:56;;;;;;;9.83;1.00;;;;;;;8.40;52.40;94639.97;5039405;28;20427;-81
2021/01/21 05:00:23;;;;;;;4.13;1.10;;;;;;;8.33;52.24;94635.44;5038326;28;20447;-81
2021/01/21 05:02:51;;;;;;;12.53;1.30;;;;;;;8.44;51.66;94634.16;5038973;28;20475;-81
2021/01/21 05:05:18;;;;;;;4.80;0.70;;;;;;;8.56;51.07;94635.00;5037001;28;20430;-85
2021/01/21 05:07:45;;;;;;;1.73;0.60;;;;;;;8.65;50.96;94636.25;5034206;28;20412;-84
2021/01/21 05:10:13;;;;;;;1.87;1.10;;;;;;;8.64;50.86;94637.53;5035112;28;20463;-84
2021/01/21 05:12:39;;;;;;;4.63;0.80;;;;;;;8.70;50.80;94635.25;5035230;28;20601;-83
2021/01/21 05:15:07;;;;;;;8.57;1.30;;;;;;;8.69;50.82;94639.91;5034716;28;20763;-84
2021/01/21 05:17:34;;;;;;;7.73;0.93;;;;;;;8.67;50.98;94642.47;5034482;28;20424;-83
2021/01/21 05:20:02;;;;;;;5.03;0.73;;;;;;;8.73;50.67;94645.59;5035181;28;20467;-82
2021/01/21 05:22:29;;;;;;;7.63;1.27;;;;;;;8.88;49.62;94639.88;5035496;28;20530;-82
2021/01/21 05:24:56;;;;;;;2.53;0.97;;;;;;;8.96;49.64;94640.41;5035900;28;20901;-83
2021/01/21 05:27:22;;;;;;;7.10;1.23;;;;;;;8.96;49.66;94631.63;5036168;28;20787;-83
2021/01/21 05:29:50;;;;;;;2.50;1.20;;;;;;;9.04;49.58;94619.44;5036109;28;20438;-80
2021/01/21 05:32:19;;;;;;;2.37;0.73;;;;;;;9.02;49.67;94635.44;5038004;28;20430;-81
2021/01/21 05:34:47;;;;;;;7.20;1.80;;;;;;;9.11;49.18;94640.06;5039682;28;20443;-81
2021/01/21 05:37:15;;;;;;;11.47;1.97;;;;;;;9.08;49.72;94643.91;5038565;28;20497;-80
2021/01/21 05:39:43;;;;;;;8.40;0.83;;;;;;;9.09;49.77;94639.25;5038986;28;20442;-80
2021/01/21 05:42:11;;;;;;;2.10;0.50;;;;;;;9.06;49.90;94641.09;5038651;28;20457;-81
2021/01/21 05:44:38;;;;;;;6.10;0.73;;;;;;;9.10;49.48;94643.34;5039103;28;20478;-81
2021/01/21 05:47:07;;;;;;;9.40;1.37;;;;;;;9.12;49.58;94651.53;5042173;28;20489;-81
2021/01/21 05:49:33;;;;;;;11.93;1.53;;;;;;;9.25;49.18;94658.44;5058256;28;20426;-83
2021/01/21 05:52:00;;;;;;;2.83;0.80;;;;;;;9.25;49.33;94651.06;5058442;28;20439;-82
2021/01/21 05:54:28;;;;;;;4.33;0.73;;;;;;;9.21;49.25;94658.88;5058493;28;20424;-83
2021/01/21 05:56:56;;;;;;;10.77;0.83;;;;;;;9.17;49.52;94655.94;5058305;28;20424;-82
2021/01/21 05:59:24;;;;;;;10.90;1.20;;;;;;;9.17;49.65;94666.69;5057113;28;20417;-84
2021/01/21 06:01:53;;;;;;;5.87;0.80;;;;;;;9.20;49.54;94657.47;5040238;28;20405;-84
2021/01/21 06:04:23;;;;;;;7.20;1.30;;;;;;;9.22;49.50;94652.22;5035812;28;20808;-84
2021/01/21 06:06:51;;;;;;;7.20;1.50;;;;;;;9.16;49.78;94665.28;5035869;28;20872;-84
2021/01/21 06:09:25;;;;;;;1.03;0.70;;;;;;;9.09;50.34;94653.41;5036496;28;20910;-81
2021/01/21 06:11:52;;;;;;;6.43;1.40;;;;;;;9.05;50.58;94655.81;5036961;28;20441;-81
2021/01/21 06:14:24;;;;;;;8.07;1.10;;;;;;;9.00;50.48;94656.13;5035080;28;20534;-84
2021/01/21 06:16:51;;;;;;;6.73;1.50;;;;;;;8.97;50.84;94671.41;5033820;28;20431;-84
2021/01/21 06:19:18;;;;;;;2.93;0.57;;;;;;;8.95;50.41;94660.53;5035448;28;20760;-84
2021/01/21 06:21:50;;;;;;;0.90;0.70;;;;;;;9.00;50.29;94650.75;5034890;28;20416;-85
2021/01/21 06:24:20;;;;;;;2.20;0.80;;;;;;;9.05;49.99;94660.50;5035148;28;20442;-84
2021/01/21 06:26:48;;;;;;;8.60;2.00;;;;;;;9.04;50.32;94656.41;5035959;28;20513;-84
2021/01/21 06:29:16;;;;;;;3.53;1.87;;;;;;;9.04;49.87;94643.66;5035964;28;20427;-84
2021/01/21 06:31:44;;;;;;;2.80;0.80;;;;;;;9.07;49.89;94633.72;5035936;28;20418;-85
2021/01/21 06:34:17;;;;;;;9.23;1.40;;;;;;;9.14;49.54;94657.09;5034942;28;20538;-84
2021/01/21 06:36:50;;;;;;;10.97;1.17;;;;;;;9.21;48.88;94656.19;5036913;28;20413;-84
2021/01/21 06:39:26;;;;;;;4.37;1.20;;;;;;;9.25;48.87;94645.69;5037264;28;20427;-86
2021/01/21 06:41:58;;;;;;;7.10;1.23;;;;;;;9.19;48.86;94642.59;5038136;28;20430;-85
2021/01/21 06:44:24;;;;;;;1.80;0.80;;;;;;;9.19;49.19;94642.59;5039507;28;20445;-84
2021/01/21 06:46:54;;;;;;;3.27;0.73;;;;;;;9.25;49.66;94667.22;5039520;28;20505;-85
2021/01/21 06:49:21;;;;;;;5.83;1.37;;;;;;;9.33;50.24;94664.38;5040554;28;20482;-84
2021/01/21 06:51:49;;;;;;;2.87;1.03;;;;;;;9.33;49.92;94673.16;5039427;28;20422;-85
2021/01/21 06:54:16;;;;;;;17.00;1.77;;;;;;;9.36;49.97;94669.31;5040442;28;21079;-82
2021/01/21 06:56:43;;;;;;;25.40;3.77;;;;;;;9.36;50.25;94658.56;5035677;28;20410;-81
2021/01/21 06:59:09;;;;;;;5.00;0.90;;;;;;;9.41;50.82;94675.66;5041804;28;20406;-82
2021/01/21 07:01:51;;;;;;;1.77;1.00;;;;;;;9.39;51.30;94667.47;5040030;28;20464;-87
2021/01/21 07:04:26;;;;;;;3.67;1.00;;;;;;;9.48;52.53;94667.44;5040161;28;20831;-86
2021/01/21 07:07:15;;;;;;;8.30;1.07;;;;;;;9.52;53.37;94656.91;5039417;28;20424;-87
2021/01/21 07:09:42;;;;;;;8.13;1.20;;;;;;;9.52;54.25;94656.22;5038430;28;20453;-87
2021/01/21 07:12:18;;;;;;;5.10;1.80;;;;;;;9.44;55.60;94656.38;5021638;28;20469;-87
2021/01/21 07:14:48;;;;;;;5.13;1.37;;;;;;;9.37;56.53;94657.25;5018580;28;20415;-87
2021/01/21 07:17:17;;;;;;;5.60;1.03;;;;;;;9.41;57.96;94656.81;5018732;28;20925;-88
2021/01/21 07:19:48;;;;;;;1.90;0.53;;;;;;;9.42;59.21;94652.88;5024771;28;20495;-88
2021/01/21 07:22:20;;;;;;;2.90;1.17;;;;;;;9.42;60.18;94648.19;5037774;28;20899;-86
2021/01/21 07:24:57;;;;;;;2.33;1.13;;;;;;;9.37;60.24;94651.88;5037668;28;20508;-86
2021/01/21 07:27:26;;;;;;;2.00;0.77;;;;;;;9.43;60.57;94632.75;5038152;28;20402;-86
2021/01/21 07:30:16;;;;;;;5.20;1.00;;;;;;;9.35;61.46;94648.34;5037959;28;20525;-86
2021/01/21 07:32:43;;;;;;;4.47;0.80;;;;;;;9.35;61.79;94642.97;5038005;28;20418;-86
2021/01/21 07:35:39;;;;;;;2.70;1.13;;;;;;;9.37;62.07;94638.41;5039748;28;20503;-87
2021/01/21 07:38:06;;;;;;;1.53;0.67;;;;;;;9.38;62.46;94642.53;5032041;28;20414;-86
2021/01/21 07:40:44;;;;;;;2.50;1.20;;;;;;;9.37;62.53;94646.50;5038085;28;20467;-86
2021/01/21 07:43:12;;;;;;;1.00;0.60;;;;;;;9.40;62.86;94652.72;5039463;28;20465;-85
2021/01/21 07:45:38;;;;;;;2.03;0.80;;;;;;;9.39;62.49;94654.72;5038154;28;20450;-85
2021/01/21 07:48:22;;;;;;;1.30;0.87;;;;;;;9.43;62.42;94663.03;5037551;28;20463;-85
2021/01/21 07:50:51;;;;;;;2.83;0.70;;;;;;;9.39;62.67;94651.31;5037478;28;20441;-86
2021/01/21 07:53:21;;;;;;;1.60;0.87;;;;;;;9.44;62.66;94645.63;5038229;28;20444;-88
2021/01/21 07:55:48;;;;;;;1.60;1.27;;;;;;;9.54;62.36;94661.72;5039065;28;20403;-88
2021/01/21 07:58:30;;;;;;;3.50;0.60;;;;;;;9.60;62.10;94657.44;5038776;28;20455;-87
2021/01/21 08:00:58;;;;;;;1.10;0.70;;;;;;;9.80;61.66;94658.06;5038658;28;20606;-86
2021/01/21 08:03:29;;;;;;;3.60;0.77;;;;;;;9.94;61.13;94653.56;5036710;28;20500;-86
2021/01/21 08:06:11;;;;;;;1.13;0.80;;;;;;;10.00;60.74;94667.41;5037428;28;20577;-86
2021/01/21 08:08:39;;;;;;;2.50;0.87;;;;;;;10.07;61.03;94665.81;5037974;28;20902;-87
2021/01/21 08:11:06;;;;;;;3.00;1.00;;;;;;;10.16;60.93;94655.00;5037146;28;20442;-86
2021/01/21 08:13:34;;;;;;;1.90;1.03;;;;;;;10.16;61.09;94649.59;5038044;28;20413;-87
2021/01/21 08:16:01;;;;;;;1.43;0.83;;;;;;;10.29;60.54;94655.75;5057205;28;20447;-86
2021/01/21 08:18:28;;;;;;;0.97;0.70;;;;;;;10.29;60.12;94661.13;5040551;28;20497;-88
2021/01/21 08:20:55;;;;;;;14.67;1.90;;;;;;;10.27;60.95;94648.25;5039626;28;20923;-88
2021/01/21 08:23:22;;;;;;;6.13;1.53;;;;;;;10.30;61.45;94652.50;5041947;28;20483;-89
2021/01/21 08:25:51;;;;;;;1.37;0.80;;;;;;;10.38;60.90;94652.97;5039968;28;20451;-87
2021/01/21 08:28:18;;;;;;;3.40;0.80;;;;;;;10.34;61.28;94647.31;5038546;28;20911;-87
2021/01/21 08:30:48;;;;;;;4.40;1.20;;;;;;;10.40;61.53;94644.31;5040609;28;20467;-88
2021/01/21 08:33:17;;;;;;;1.33;0.60;;;;;;;10.39;61.58;94646.31;5040701;28;20435;-90
2021/01/21 08:35:48;;;;;;;1.13;0.60;;;;;;;10.39;61.65;94654.41;5041663;28;20939;-89
2021/01/21 08:38:19;;;;;;;2.33;0.50;;;;;;;10.36;62.32;94654.84;5039181;28;20827;-90
2021/01/21 08:40:48;;;;;;;2.23;0.80;;;;;;;10.40;62.66;94647.69;5041368;28;20462;-87
2021/01/21 08:43:15;;;;;;;0.80;0.60;;;;;;;10.42;62.76;94649.81;5043557;28;20494;-87
2021/01/21 08:45:41;;;;;;;4.73;1.10;;;;;;;10.41;62.27;94657.22;5039698;28;20425;-86
2021/01/21 08:48:08;;;;;;;2.90;0.90;;;;;;;10.43;62.94;94653.94;5040357;28;20515;-87
2021/01/21 08:50:42;;;;;;;3.40;0.70;;;;;;;10.45;63.01;94662.84;5043213;28;20434;-89
2021/01/21 08:53:10;;;;;;;3.13;0.80;;;;;;;10.59;61.79;94671.81;5058280;28;20406;-86
2021/01/21 08:55:44;;;;;;;1.90;0.53;;;;;;;10.59;62.45;94665.72;5057205;28;20406;-88
2021/01/21 08:58:15;;;;;;;4.30;0.60;;;;;;;10.60;62.29;94667.13;5057446;28;20394;-87
2021/01/21 09:01:00;;;;;;;3.80;0.90;;;;;;;10.47;62.47;94675.75;5042018;28;20463;-84
2021/01/21 09:03:36;;;;;;;3.90;0.60;;;;;;;10.61;62.18;94674.66;5046526;28;21055;-87
2021/01/21 09:06:04;;;;;;;8.93;0.80;;;;;;;10.58;62.52;94683.91;5041392;28;20431;-90
2021/01/21 09:08:32;;;;;;;4.07;1.10;;;;;;;10.59;62.37;94681.88;5038272;28;20441;-89
2021/01/21 09:10:59;;;;;;;1.03;0.60;;;;;;;10.68;61.95;94681.81;5037673;28;20479;-88
2021/01/21 09:13:30;;;;;;;2.93;0.80;;;;;;;10.69;61.72;94682.50;5043816;28;20501;-87
2021/01/21 09:15:57;;;;;;;3.00;1.30;;;;;;;10.81;61.79;94685.28;5044114;28;20951;-91
2021/01/21 09:18:26;;;;;;;5.00;0.90;;;;;;;10.73;61.39;94696.97;5042593;28;20443;-88
2021/01/21 09:21:11;;;;;;;0.80;0.60;;;;;;;10.85;61.54;94697.00;5037855;28;21006;-88
2021/01/21 09:23:37;;;;;;;5.13;1.40;;;;;;;10.96;61.41;94701.03;5037388;28;20478;-88
2021/01/21 09:26:14;;;;;;;2.93;1.13;;;;;;;11.05;61.42;94692.84;5037240;28;20814;-88
2021/01/21 09:28:56;;;;;;;7.63;1.10;;;;;;;11.22;61.29;94686.41;5036374;28;20455;-88
2021/01/21 09:31:23;;;;;;;9.00;1.13;;;;;;;11.31;60.99;94690.97;5033321;28;20467;-88
2021/01/21 09:33:53;;;;;;;1.77;0.80;;;;;;;11.41;60.75;94693.56;5036582;28;20450;-89
2021/01/21 09:36:20;;;;;;;1.60;0.90;;;;;;;11.44;60.64;94695.81;5036159;28;20518;-88
2021/01/21 09:38:47;;;;;;;8.33;0.73;;;;;;;11.39;60.78;94686.06;5036287;28;20443;-82
2021/01/21 09:41:13;;;;;;;13.43;1.17;;;;;;;11.37;61.13;94699.44;5039349;28;20451;-85
2021/01/21 09:43:41;;;;;;;2.10;0.70;;;;;;;11.30;61.56;94692.28;5035845;28;20486;-87
2021/01/21 09:46:08;;;;;;;3.13;0.70;;;;;;;11.30;61.51;94697.69;5039297;28;20476;-82
2021/01/21 09:48:35;;;;;;;3.43;0.87;;;;;;;11.21;61.51;94690.41;5041909;28;20421;-82
2021/01/21 09:51:01;;;;;;;3.50;1.20;;;;;;;11.16;61.77;94694.13;5043613;28;20482;-83
2021/01/21 09:53:28;;;;;;;11.20;1.40;;;;;;;11.14;62.30;94705.53;5041519;28;20558;-83
2021/01/21 09:55:56;;;;;;;4.70;1.20;;;;;;;11.26;61.84;94705.53;5040881;28;20494;-83
2021/01/21 09:58:23;;;;;;;6.00;0.90;;;;;;;11.29;61.76;94693.56;5042505;28;20421;-85
2021/01/21 10:00:50;;;;;;;3.63;0.70;;;;;;;11.30;61.92;94700.38;5041260;28;20587;-83
2021/01/21 10:03:18;;;;;;;1.43;0.70;;;;;;;11.32;62.13;94705.19;5040965;28;20992;-83
2021/01/21 10:05:44;;;;;;;3.60;0.80;;;;;;;11.30;62.02;94697.69;5040843;28;20447;-83
2021/01/21 10:08:11;;;;;;;0.87;0.70;;;;;;;11.29;61.78;94699.69;5040778;28;20407;-83
2021/01/21 10:10:37;;;;;;;3.63;0.80;;;;;;;11.39;61.55;94696.88;5038622;28;20482;-85
2021/01/21 10:13:03;;;;;;;2.93;0.73;;;;;;;11.44;61.84;94703.19;5036528;28;20530;-85
2021/01/21 10:15:30;;;;;;;2.70;0.60;;;;;;;11.44;61.88;94705.91;5040142;28;20455;-87
2021/01/21 10:17:56;;;;;;;2.53;0.70;;;;;;;11.33;62.20;94699.22;5038825;28;20546;-85
2021/01/21 10:20:24;;;;;;;5.00;1.13;;;;;;;11.33;62.35;94701.22;5041176;28;20554;-86
2021/01/21 10:22:50;;;;;;;2.10;0.60;;;;;;;11.23;62.48;94704.72;5044094;28;20454;-86
2021/01/21 10:25:17;;;;;;;1.90;1.03;;;;;;;11.21;63.08;94696.47;5044974;28;20498;-86
2021/01/21 10:27:43;;;;;;;1.70;0.80;;;;;;;11.28;63.01;94700.97;5045900;28;20474;-84
2021/01/21 10:30:11;;;;;;;1.37;0.60;;;;;;;11.43;62.63;94696.41;5045497;28;20478;-84
2021/01/21 10:32:37;;;;;;;3.57;1.00;;;;;;;11.60;61.83;94696.75;5050298;28;20455;-83
2021/01/21 10:35:05;;;;;;;5.03;1.10;;;;;;;11.71;62.06;94692.69;5046214;28;21019;-82
2021/01/21 10:37:32;;;;;;;5.20;0.87;;;;;;;11.91;60.86;94703.94;5046382;28;20451;-84
2021/01/21 10:39:59;;;;;;;6.37;1.77;;;;;;;11.95;61.02;94704.16;5046490;28;20467;-82
2021/01/21 10:42:25;;;;;;;5.30;0.60;;;;;;;11.91;60.82;94712.03;5045906;28;20455;-82
2021/01/21 10:44:51;;;;;;;3.73;0.90;;;;;;;11.87;60.74;94709.13;5047228;28;20465;-83
2021/01/21 10:47:18;;;;;;;0.80;0.50;;;;;;;11.84;61.29;94716.38;5049187;28;20450;-86
2021/01/21 10:49:44;;;;;;;1.00;0.53;;;;;;;12.01;60.87;94718.03;5046646;28;20469;-83
2021/01/21 10:52:11;;;;;;;2.70;1.07;;;;;;;12.10;61.01;94720.59;5044572;28;20476;-83
2021/01/21 10:54:39;;;;;;;2.37;0.77;;;;;;;12.17;60.67;94724.34;5044052;28;20503;-83
2021/01/21 10:57:06;;;;;;;0.90;0.73;;;;;;;12.32;61.87;94716.44;5043795;28;20463;-82
2021/01/21 10:59:32;;;;;;;0.90;0.70;;;;;;;12.24;63.01;94716.00;5044506;28;20461;-83
2021/01/21 11:01:58;;;;;;;3.43;1.00;;;;;;;12.28;63.04;94729.03;5040858;28;20418;-85
2021/01/21 11:04:25;;;;;;;1.73;1.00;;;;;;;12.26;62.35;94718.81;5041872;28;20453;-86
2021/01/21 11:06:51;;;;;;;1.33;0.70;;;;;;;12.38;62.58;94724.19;5056589;28;20414;-87
2021/01/21 11:09:23;;;;;;;1.47;0.87;;;;;;;12.39;63.38;94717.50;5057445;28;20442;-85
2021/01/21 11:11:51;;;;;;;5.70;1.83;;;;;;;12.37;63.88;94725.50;5059474;28;20467;-87
2021/01/21 11:14:17;;;;;;;0.67;0.60;;;;;;;12.31;62.28;94730.56;5059524;28;20462;-86
2021/01/21 11:16:44;;;;;;;0.90;0.63;;;;;;;12.39;62.72;94717.50;5047891;28;20822;-86
2021/01/21 11:19:10;;;;;;;1.20;0.70;;;;;;;12.43;63.75;94728.56;5039290;28;20402;-87
2021/01/21 11:21:36;;;;;;;2.10;0.70;;;;;;;12.49;63.49;94712.66;5040249;28;20499;-86
2021/01/21 11:24:03;;;;;;;1.43;0.80;;;;;;;12.39;63.22;94716.78;5037501;28;21023;-86
2021/01/21 11:26:29;;;;;;;1.40;0.70;;;;;;;12.24;63.74;94713.31;5045573;28;20453;-87
2021/01/21 11:28:56;;;;;;;4.03;1.13;;;;;;;12.21;62.86;94713.78;5038496;28;20918;-86
2021/01/21 11:31:23;;;;;;;2.80;0.77;;;;;;;12.17;62.87;94706.13;5038742;28;20948;-84
2021/01/21 11:33:49;;;;;;;2.10;0.90;;;;;;;12.11;63.04;94715.91;5038710;28;20471;-86
2021/01/21 11:36:16;;;;;;;1.63;0.90;;;;;;;12.01;62.71;94718.03;5038677;28;20526;-85
2021/01/21 11:38:42;;;;;;;1.10;0.70;;;;;;;11.95;62.37;94715.69;5039016;28;20454;-86
2021/01/21 11:41:09;;;;;;;3.23;1.10;;;;;;;11.91;62.25;94717.44;5038590;28;20489;-86
2021/01/21 11:43:35;;;;;;;1.43;0.67;;;;;;;11.95;62.58;94717.69;5039550;28;20579;-85
2021/01/21 11:46:02;;;;;;;3.97;1.10;;;;;;;11.90;63.04;94702.53;5058702;28;20458;-85